Terminal Aerodrome Forecast
Issued by NWS

Home | Current Version | Previous Version | Text Only | Print | Product List | Glossary On
Versions: 1 2 3 4 5 6 7 8 9 10 11 12 13
453
FTUS45 KABQ 222325
TAFGUP
TAF
KGUP 222325Z 2300/2324 06007KT P6SM VCTS SCT080CB
      TEMPO 2300/2302 VRB25G35KT BKN070CB
     FM230200 07010KT P6SM VCSH BKN090
     FM230600 VRB06KT P6SM BKN120
     FM231500 11006KT P6SM FEW070 SCT120
     FM232000 10010KT P6SM VCTS BKN080CB=

USA.gov is the U.S. government's official web portal to all federal, state and local government web resources and services.